createdAt,value
2019-02-26T00:01:28.698Z,20.05
2019-02-26T00:03:59.065Z,19.85
2019-02-26T00:06:30.263Z,20.60
2019-02-26T00:09:01.831Z,19.67
2019-02-26T00:11:33.310Z,20.05
2019-02-26T00:14:04.462Z,20.25
2019-02-26T00:16:37.670Z,20.17
2019-02-26T00:19:07.519Z,20.12
2019-02-26T00:21:38.420Z,19.50
2019-02-26T00:24:10.015Z,18.52
2019-02-26T00:26:40.761Z,19.87
2019-02-26T00:29:10.276Z,19.77
2019-02-26T00:31:39.760Z,19.75
2019-02-26T00:34:10.820Z,18.58
2019-02-26T00:36:40.580Z,19.92
2019-02-26T00:39:10.190Z,20.93
2019-02-26T00:41:40.454Z,19.67
2019-02-26T00:44:10.042Z,19.60
2019-02-26T00:46:39.650Z,20.57
2019-02-26T00:49:10.051Z,19.30
2019-02-26T00:51:44.308Z,19.00
2019-02-26T00:54:11.749Z,19.55
2019-02-26T00:56:41.231Z,20.40
2019-02-26T00:59:10.779Z,19.95
2019-02-26T01:01:44.114Z,19.10
2019-02-26T01:04:12.426Z,20.00
2019-02-26T01:06:41.956Z,19.05
2019-02-26T01:09:13.230Z,18.00
2019-02-26T01:11:43.384Z,19.17
2019-02-26T01:14:15.653Z,19.35
2019-02-26T01:16:46.136Z,19.50
2019-02-26T01:19:17.536Z,19.25
2019-02-26T01:21:47.288Z,19.57
2019-02-26T01:24:16.753Z,19.67
2019-02-26T01:26:46.156Z,19.00
2019-02-26T01:29:18.570Z,19.50
2019-02-26T01:31:46.704Z,19.65
2019-02-26T01:34:17.984Z,19.30
2019-02-26T01:36:49.481Z,19.20
2019-02-26T01:39:19.221Z,19.20
2019-02-26T01:41:51.186Z,18.70
2019-02-26T01:44:20.759Z,20.02
2019-02-26T01:46:50.219Z,19.98
2019-02-26T01:49:21.485Z,19.95
2019-02-26T01:51:51.783Z,19.82
2019-02-26T01:54:21.961Z,20.10
2019-02-26T01:56:53.397Z,18.90
2019-02-26T01:59:22.519Z,19.97
2019-02-26T02:01:53.683Z,19.10
2019-02-26T02:04:23.113Z,19.73
2019-02-26T02:06:54.890Z,19.98
2019-02-26T02:09:25.138Z,19.42
2019-02-26T02:11:57.358Z,19.65
2019-02-26T02:14:25.843Z,19.05
2019-02-26T02:16:55.775Z,19.62
2019-02-26T02:19:27.141Z,18.67
2019-02-26T02:21:58.201Z,19.02
2019-02-26T02:24:27.481Z,19.60
2019-02-26T02:26:58.591Z,19.27
2019-02-26T02:29:28.633Z,18.80
2019-02-26T02:31:59.536Z,19.73
2019-02-26T02:34:30.203Z,18.65
2019-02-26T02:37:00.473Z,18.98
2019-02-26T02:39:29.929Z,19.60
2019-02-26T02:41:59.512Z,17.60
2019-02-26T02:44:28.969Z,19.95
2019-02-26T02:46:59.179Z,18.40
2019-02-26T02:49:32.098Z,19.65
2019-02-26T02:52:01.446Z,19.70
2019-02-26T02:54:31.719Z,19.60
2019-02-26T02:57:02.502Z,19.37
2019-02-26T02:59:34.045Z,19.57
2019-02-26T03:02:04.520Z,20.25
2019-02-26T03:04:34.838Z,19.65
2019-02-26T03:07:04.564Z,19.82
2019-02-26T03:09:37.751Z,19.90
2019-02-26T03:12:06.139Z,19.98
2019-02-26T03:14:38.903Z,19.82
2019-02-26T03:17:09.177Z,19.27
2019-02-26T03:19:41.518Z,18.57
2019-02-26T03:22:12.693Z,18.77
2019-02-26T03:24:41.290Z,19.10
2019-02-26T03:27:10.712Z,18.77
2019-02-26T03:29:40.162Z,17.42
2019-02-26T03:32:09.618Z,18.32
2019-02-26T03:34:39.387Z,19.73
2019-02-26T03:37:10.943Z,18.72
2019-02-26T03:39:39.967Z,18.67
2019-02-26T03:42:10.571Z,19.25
2019-02-26T03:44:40.630Z,19.45
2019-02-26T03:47:10.228Z,19.45
2019-02-26T03:49:41.851Z,19.50
2019-02-26T03:52:15.318Z,19.42
2019-02-26T03:54:43.611Z,19.70
2019-02-26T03:57:14.775Z,19.42
2019-02-26T03:59:45.309Z,19.48
2019-02-26T04:02:17.041Z,19.95
2019-02-26T04:04:51.740Z,19.37
2019-02-26T04:07:17.447Z,18.82
2019-02-26T04:09:49.802Z,19.98
2019-02-26T04:12:18.934Z,19.77
2019-02-26T04:14:49.343Z,18.73
2019-02-26T04:17:23.126Z,19.17
2019-02-26T04:19:50.188Z,19.23
2019-02-26T04:22:27.154Z,18.82
2019-02-26T04:25:03.859Z,19.65
2019-02-26T04:27:44.067Z,19.73
2019-02-26T04:30:36.618Z,19.00
2019-02-26T04:33:27.313Z,20.70
2019-02-26T04:36:11.583Z,19.60
2019-02-26T04:39:01.703Z,19.60
2019-02-26T04:41:36.055Z,19.42
2019-02-26T04:44:34.240Z,19.65
2019-02-26T04:47:05.927Z,19.85
2019-02-26T04:49:38.387Z,20.12
2019-02-26T04:52:08.570Z,20.10
2019-02-26T04:54:39.515Z,20.00
2019-02-26T04:57:09.294Z,20.60
2019-02-26T04:59:41.315Z,19.62
2019-02-26T05:02:09.826Z,20.72
2019-02-26T05:04:40.121Z,19.10
2019-02-26T05:07:13.440Z,20.48
2019-02-26T05:09:42.350Z,19.98
2019-02-26T05:12:11.756Z,20.25
2019-02-26T05:14:41.213Z,19.23
2019-02-26T05:17:10.637Z,20.25
2019-02-26T05:19:42.427Z,20.80
2019-02-26T05:22:11.217Z,20.10
2019-02-26T05:24:43.783Z,19.23
2019-02-26T05:27:18.656Z,18.27
2019-02-26T05:29:49.032Z,20.32
2019-02-26T05:32:18.699Z,21.33
2019-02-26T05:34:50.781Z,20.52
2019-02-26T05:37:19.400Z,21.40
2019-02-26T05:39:51.820Z,20.65
2019-02-26T05:42:20.069Z,21.82
2019-02-26T05:44:53.856Z,20.68
2019-02-26T05:47:23.522Z,23.32
2019-02-26T05:49:52.320Z,21.45
2019-02-26T05:52:24.098Z,20.85
2019-02-26T05:54:52.888Z,20.25
2019-02-26T05:57:27.672Z,20.90
2019-02-26T05:59:53.537Z,20.08
2019-02-26T06:02:24.595Z,20.95
2019-02-26T06:04:54.157Z,21.05
2019-02-26T06:07:26.984Z,19.85
2019-02-26T06:09:56.422Z,21.33
2019-02-26T06:12:26.071Z,23.30
2019-02-26T06:15:00.261Z,21.15
2019-02-26T06:17:26.694Z,21.70
2019-02-26T06:20:01.814Z,21.82
2019-02-26T06:22:31.850Z,21.50
2019-02-26T06:25:06.955Z,21.10
2019-02-26T06:27:32.536Z,20.20
2019-02-26T06:30:05.903Z,20.88
2019-02-26T06:32:35.220Z,20.32
2019-02-26T06:35:08.513Z,21.20
2019-02-26T06:37:40.259Z,20.43
2019-02-26T06:40:12.076Z,21.02
2019-02-26T06:42:41.577Z,22.62
2019-02-26T06:45:16.408Z,21.90
2019-02-26T06:47:48.467Z,21.27
2019-02-26T06:50:18.850Z,22.30
2019-02-26T06:52:50.782Z,24.43
2019-02-26T06:55:20.467Z,22.58
2019-02-26T06:57:52.652Z,22.20
2019-02-26T07:00:23.897Z,22.50
2019-02-26T07:02:52.288Z,23.00
2019-02-26T07:05:23.848Z,22.37
2019-02-26T07:07:55.871Z,23.00
2019-02-26T07:10:26.218Z,22.77
2019-02-26T07:12:55.211Z,21.07
2019-02-26T07:15:28.759Z,21.77
2019-02-26T07:18:00.058Z,21.23
2019-02-26T07:20:33.885Z,22.32
2019-02-26T07:22:58.936Z,22.15
2019-02-26T07:25:28.377Z,21.02
2019-02-26T07:27:58.926Z,21.65
2019-02-26T07:30:29.158Z,20.97
2019-02-26T07:33:03.464Z,22.52
2019-02-26T07:35:35.163Z,22.00
2019-02-26T07:38:05.371Z,20.30
2019-02-26T07:40:35.913Z,21.10
2019-02-26T07:43:09.138Z,21.70
2019-02-26T07:45:37.146Z,21.20
2019-02-26T07:48:06.563Z,21.05
2019-02-26T07:50:38.247Z,20.80
2019-02-26T07:53:07.121Z,18.95
2019-02-26T07:55:38.186Z,20.27
2019-02-26T07:58:09.329Z,20.05
2019-02-26T08:00:40.302Z,20.90
2019-02-26T08:03:10.214Z,21.60
2019-02-26T08:05:39.660Z,21.35
2019-02-26T08:08:10.175Z,20.92
2019-02-26T08:10:42.820Z,19.73
2019-02-26T08:13:12.030Z,20.15
2019-02-26T08:15:41.570Z,20.37
2019-02-26T08:18:11.110Z,20.27
2019-02-26T08:20:40.564Z,19.25
2019-02-26T08:23:10.033Z,19.37
2019-02-26T08:25:39.459Z,20.12
2019-02-26T08:28:08.996Z,19.90
2019-02-26T08:30:42.287Z,19.32
2019-02-26T08:33:09.675Z,20.48
2019-02-26T08:35:39.185Z,20.37
2019-02-26T08:38:08.832Z,19.25
2019-02-26T08:40:38.190Z,19.60
2019-02-26T08:43:07.683Z,20.20
2019-02-26T08:45:37.108Z,20.65
2019-02-26T08:48:07.747Z,20.10
2019-02-26T08:50:39.054Z,21.07
2019-02-26T08:53:08.322Z,20.30
2019-02-26T08:55:38.033Z,20.20
2019-02-26T08:58:10.570Z,20.50
2019-02-26T09:00:39.713Z,20.48
2019-02-26T09:03:10.842Z,20.37
2019-02-26T09:05:40.292Z,22.42
2019-02-26T09:08:11.427Z,21.80
2019-02-26T09:10:41.766Z,21.85
2019-02-26T09:13:14.526Z,23.20
2019-02-26T09:15:44.505Z,23.15
2019-02-26T09:18:14.095Z,24.80
2019-02-26T09:20:43.589Z,23.45
2019-02-26T09:23:16.371Z,24.75
2019-02-26T09:25:46.435Z,24.57
2019-02-26T09:28:15.557Z,25.00
2019-02-26T09:30:45.055Z,23.57
2019-02-26T09:33:14.636Z,24.47
2019-02-26T09:35:45.240Z,23.80
2019-02-26T09:38:17.540Z,24.37
2019-02-26T09:40:48.210Z,24.87
2019-02-26T09:43:19.457Z,25.43
2019-02-26T09:45:50.580Z,25.12
2019-02-26T09:48:21.887Z,25.48
2019-02-26T09:50:51.023Z,26.00
2019-02-26T09:53:20.488Z,27.90
2019-02-26T09:55:49.908Z,26.62
2019-02-26T09:58:21.078Z,24.10
2019-02-26T10:00:53.461Z,25.92
2019-02-26T10:03:21.826Z,25.57
2019-02-26T10:05:53.232Z,25.82
2019-02-26T10:08:24.809Z,25.27
2019-02-26T10:10:55.028Z,25.27
2019-02-26T10:13:27.246Z,25.37
2019-02-26T10:15:59.228Z,25.57
2019-02-26T10:18:30.340Z,25.70
2019-02-26T10:20:59.682Z,25.48
2019-02-26T10:23:33.087Z,26.35
2019-02-26T10:26:02.794Z,26.07
2019-02-26T10:28:35.266Z,26.17
2019-02-26T10:31:04.874Z,26.82
2019-02-26T10:33:37.957Z,25.72
2019-02-26T10:36:05.541Z,25.40
2019-02-26T10:38:38.329Z,27.93
2019-02-26T10:41:07.653Z,26.60
2019-02-26T10:43:37.177Z,27.13
2019-02-26T10:46:06.758Z,27.55
2019-02-26T10:48:36.222Z,29.15
2019-02-26T10:51:06.693Z,28.40
2019-02-26T10:53:36.810Z,26.62
2019-02-26T10:56:07.373Z,29.27
2019-02-26T10:58:36.844Z,29.27
2019-02-26T11:01:07.411Z,28.47
2019-02-26T11:03:40.921Z,27.90
2019-02-26T11:06:10.831Z,27.60
2019-02-26T11:08:39.461Z,29.12
2019-02-26T11:11:09.970Z,26.57
2019-02-26T11:13:42.800Z,25.80
2019-02-26T11:16:11.447Z,27.13
2019-02-26T11:18:42.728Z,28.02
2019-02-26T11:21:12.277Z,26.05
2019-02-26T11:23:43.882Z,26.05
2019-02-26T11:26:15.218Z,25.30
2019-02-26T11:28:45.883Z,25.70
2019-02-26T11:31:16.636Z,24.72
2019-02-26T11:33:48.084Z,24.53
2019-02-26T11:36:17.663Z,24.70
2019-02-26T11:38:47.182Z,27.30
2019-02-26T11:41:16.685Z,24.27
2019-02-26T11:43:46.212Z,24.82
2019-02-26T11:46:15.624Z,24.45
2019-02-26T11:48:45.696Z,24.92
2019-02-26T11:51:17.790Z,25.52
2019-02-26T11:53:47.429Z,24.43
2019-02-26T11:56:17.724Z,24.57
2019-02-26T11:58:48.075Z,24.72
2019-02-26T12:01:18.015Z,25.77
2019-02-26T12:03:47.527Z,26.00
2019-02-26T12:06:16.997Z,25.70
2019-02-26T12:08:47.325Z,23.77
2019-02-26T12:11:20.146Z,25.02
2019-02-26T12:13:50.198Z,24.15
2019-02-26T12:16:19.923Z,25.20
2019-02-26T12:18:49.336Z,23.57
2019-02-26T12:21:18.874Z,23.77
2019-02-26T12:23:48.346Z,23.25
2019-02-26T12:26:19.288Z,21.60
2019-02-26T12:28:49.089Z,22.52
2019-02-26T12:31:18.594Z,21.62
2019-02-26T12:33:48.010Z,21.20
2019-02-26T12:36:17.538Z,20.97
2019-02-26T12:38:49.648Z,21.33
2019-02-26T12:41:20.900Z,19.80
2019-02-26T12:43:49.559Z,19.75
2019-02-26T12:46:19.801Z,21.05
2019-02-26T12:48:50.463Z,19.93
2019-02-26T12:51:22.477Z,19.52
2019-02-26T12:53:50.973Z,19.75
2019-02-26T12:56:21.472Z,19.70
2019-02-26T12:58:54.532Z,18.40
2019-02-26T13:01:24.695Z,16.40
2019-02-26T13:03:54.994Z,17.02
2019-02-26T13:06:24.989Z,17.85
2019-02-26T13:08:54.473Z,16.42
2019-02-26T13:11:25.072Z,16.85
2019-02-26T13:13:54.655Z,17.02
2019-02-26T13:16:24.169Z,16.93
2019-02-26T13:18:58.612Z,16.82
2019-02-26T13:21:24.928Z,17.15
2019-02-26T13:23:58.680Z,18.02
2019-02-26T13:26:25.871Z,19.10
2019-02-26T13:28:56.179Z,19.73
2019-02-26T13:31:26.467Z,19.82
2019-02-26T13:33:56.048Z,20.60
2019-02-26T13:36:25.484Z,18.20
2019-02-26T13:38:54.949Z,19.45
2019-02-26T13:41:29.928Z,19.25
2019-02-26T13:43:55.521Z,19.37
2019-02-26T13:46:25.084Z,19.60
2019-02-26T13:48:54.605Z,18.98
2019-02-26T13:51:24.064Z,18.02
2019-02-26T13:53:53.514Z,18.30
2019-02-26T13:56:23.003Z,19.55
2019-02-26T13:58:52.459Z,19.60
2019-02-26T14:01:21.916Z,19.48
2019-02-26T14:03:51.371Z,20.35
2019-02-26T14:06:20.829Z,20.17
2019-02-26T14:08:50.428Z,19.50
2019-02-26T14:11:19.888Z,18.55
2019-02-26T14:13:50.392Z,21.10
2019-02-26T14:16:19.899Z,20.30
2019-02-26T14:18:49.311Z,19.85
2019-02-26T14:21:18.778Z,19.67
2019-02-26T14:23:48.268Z,18.53
2019-02-26T14:26:17.752Z,20.70
2019-02-26T14:28:47.281Z,19.85
2019-02-26T14:31:16.931Z,19.85
2019-02-26T14:33:46.339Z,19.30
2019-02-26T14:36:15.807Z,18.32
2019-02-26T14:38:45.232Z,18.60
2019-02-26T14:41:14.715Z,17.05
2019-02-26T14:43:44.353Z,16.33
2019-02-26T14:46:13.823Z,16.48
2019-02-26T14:48:43.291Z,16.27
2019-02-26T14:51:12.751Z,16.35
2019-02-26T14:53:43.341Z,15.95
2019-02-26T14:56:12.796Z,15.93
2019-02-26T14:58:42.217Z,16.42
2019-02-26T15:01:11.638Z,15.07
2019-02-26T15:03:41.108Z,15.48
2019-02-26T15:06:11.011Z,15.03
2019-02-26T15:08:41.312Z,14.80
2019-02-26T15:11:10.973Z,14.60
2019-02-26T15:13:40.453Z,14.80
2019-02-26T15:16:09.883Z,14.60
2019-02-26T15:18:39.425Z,15.07
2019-02-26T15:21:09.072Z,15.70
2019-02-26T15:23:38.593Z,15.43
2019-02-26T15:26:08.043Z,15.53
2019-02-26T15:28:37.563Z,16.02
2019-02-26T15:31:07.016Z,16.02
2019-02-26T15:33:36.597Z,16.30
2019-02-26T15:36:06.065Z,15.95
2019-02-26T15:38:35.487Z,15.83
2019-02-26T15:41:05.248Z,16.37
2019-02-26T15:43:34.802Z,15.87
2019-02-26T15:46:04.591Z,16.67
2019-02-26T15:48:36.331Z,16.07
2019-02-26T15:51:13.905Z,16.20
2019-02-26T15:53:36.609Z,15.95
2019-02-26T15:56:06.215Z,16.05
2019-02-26T15:58:35.686Z,16.48
2019-02-26T16:01:08.525Z,16.70
2019-02-26T16:03:38.050Z,17.07
2019-02-26T16:06:07.518Z,16.10
2019-02-26T16:08:38.558Z,16.95
2019-02-26T16:11:08.183Z,16.27
2019-02-26T16:13:37.771Z,17.55
2019-02-26T16:16:07.250Z,16.27
2019-02-26T16:18:36.952Z,16.40
2019-02-26T16:21:06.668Z,15.95
2019-02-26T16:23:36.094Z,16.82
2019-02-26T16:26:08.095Z,16.93
2019-02-26T16:28:36.871Z,17.40
2019-02-26T16:31:06.344Z,17.52
2019-02-26T16:33:36.083Z,17.05
2019-02-26T16:36:05.654Z,17.27
2019-02-26T16:38:35.331Z,16.95
2019-02-26T16:41:05.571Z,17.57
2019-02-26T16:43:35.284Z,17.60
2019-02-26T16:46:08.283Z,18.73
2019-02-26T16:48:36.270Z,15.75
2019-02-26T16:51:06.017Z,17.25
2019-02-26T16:53:35.444Z,17.15
2019-02-26T16:56:04.905Z,17.40
2019-02-26T16:58:35.566Z,18.07
2019-02-26T17:01:07.749Z,18.42
2019-02-26T17:03:37.337Z,17.98
2019-02-26T17:06:08.477Z,18.15
2019-02-26T17:08:38.318Z,19.10
2019-02-26T17:11:07.845Z,19.65
2019-02-26T17:13:37.771Z,18.23
2019-02-26T17:16:07.359Z,19.85
2019-02-26T17:18:36.938Z,20.88
2019-02-26T17:21:08.212Z,19.57
2019-02-26T17:23:38.153Z,18.57
2019-02-26T17:26:07.910Z,18.73
2019-02-26T17:28:37.535Z,19.70
2019-02-26T17:31:07.368Z,22.98
2019-02-26T17:33:36.802Z,20.00
2019-02-26T17:36:06.570Z,18.15
2019-02-26T17:38:35.996Z,19.98
2019-02-26T17:41:05.633Z,19.07
2019-02-26T17:43:35.275Z,18.80
2019-02-26T17:46:05.022Z,18.85
2019-02-26T17:48:43.276Z,18.35
2019-02-26T17:51:05.980Z,18.77
2019-02-26T17:53:35.453Z,20.05
2019-02-26T17:56:05.011Z,18.70
2019-02-26T17:58:34.507Z,19.02
2019-02-26T18:01:04.975Z,19.00
2019-02-26T18:03:35.393Z,19.42
2019-02-26T18:06:04.937Z,20.80
2019-02-26T18:08:34.826Z,21.02
2019-02-26T18:11:04.686Z,19.55
2019-02-26T18:13:34.615Z,19.45
2019-02-26T18:16:09.062Z,19.77
2019-02-26T18:18:35.909Z,19.02
2019-02-26T18:21:06.537Z,19.62
2019-02-26T18:23:37.736Z,19.37
2019-02-26T18:26:07.417Z,19.48
2019-02-26T18:28:36.956Z,18.87
2019-02-26T18:31:06.481Z,19.55
2019-02-26T18:33:36.330Z,19.45
2019-02-26T18:36:05.942Z,21.50
2019-02-26T18:38:35.543Z,20.02
2019-02-26T18:41:05.056Z,19.12
2019-02-26T18:43:34.583Z,20.27
2019-02-26T18:46:05.197Z,20.48
2019-02-26T18:48:34.795Z,21.07
2019-02-26T18:51:04.336Z,22.40
2019-02-26T18:53:33.757Z,20.68
2019-02-26T18:56:04.913Z,21.10
2019-02-26T18:58:34.870Z,21.85
2019-02-26T19:01:04.486Z,20.77
2019-02-26T19:03:34.591Z,21.33
2019-02-26T19:06:04.543Z,20.68
2019-02-26T19:08:34.719Z,22.48
2019-02-26T19:11:04.605Z,21.00
2019-02-26T19:13:35.599Z,22.60
2019-02-26T19:16:05.466Z,23.50
2019-02-26T19:18:36.581Z,26.82
2019-02-26T19:21:06.878Z,24.30
2019-02-26T19:23:36.530Z,24.75
2019-02-26T19:26:05.996Z,22.55
2019-02-26T19:28:35.467Z,24.27
2019-02-26T19:31:09.586Z,24.05
2019-02-26T19:33:38.979Z,23.12
2019-02-26T19:36:10.622Z,23.83
2019-02-26T19:38:39.664Z,24.72
2019-02-26T19:41:14.902Z,23.07
2019-02-26T19:43:44.411Z,23.73
2019-02-26T19:46:16.903Z,23.97
2019-02-26T19:48:45.174Z,24.60
2019-02-26T19:51:14.622Z,23.77
2019-02-26T19:53:44.104Z,24.00
2019-02-26T19:56:13.564Z,22.58
2019-02-26T19:58:43.080Z,25.23
2019-02-26T20:01:12.639Z,23.62
2019-02-26T20:03:42.153Z,24.85
2019-02-26T20:06:11.588Z,24.37
2019-02-26T20:08:41.163Z,24.80
2019-02-26T20:11:10.662Z,24.10
2019-02-26T20:13:42.198Z,24.85
2019-02-26T20:16:13.406Z,24.77
2019-02-26T20:18:42.889Z,26.10
2019-02-26T20:21:12.295Z,22.93
2019-02-26T20:23:42.472Z,24.25
2019-02-26T20:26:16.177Z,25.23
2019-02-26T20:28:43.244Z,23.70
2019-02-26T20:31:12.817Z,25.15
2019-02-26T20:33:42.218Z,23.83
2019-02-26T20:36:11.718Z,25.57
2019-02-26T20:38:41.296Z,24.60
2019-02-26T20:41:10.787Z,24.93
2019-02-26T20:43:40.255Z,24.37
2019-02-26T20:46:09.776Z,23.80
2019-02-26T20:48:39.266Z,25.40
2019-02-26T20:51:08.708Z,22.93
2019-02-26T20:53:38.895Z,23.83
2019-02-26T20:56:09.064Z,25.00
2019-02-26T20:58:38.537Z,24.52
2019-02-26T21:01:08.039Z,25.23
2019-02-26T21:03:37.520Z,26.37
2019-02-26T21:06:06.948Z,24.67
2019-02-26T21:08:36.426Z,25.65
2019-02-26T21:11:05.972Z,26.27
2019-02-26T21:13:35.542Z,27.13
2019-02-26T21:16:05.061Z,25.30
2019-02-26T21:18:34.608Z,27.15
2019-02-26T21:21:04.146Z,26.20
2019-02-26T21:23:33.587Z,26.55
2019-02-26T21:26:03.019Z,26.90
2019-02-26T21:28:33.759Z,27.42
2019-02-26T21:31:04.362Z,27.58
2019-02-26T21:33:34.217Z,25.70
2019-02-26T21:36:04.607Z,27.54
2019-02-26T21:38:34.064Z,26.87
2019-02-26T21:41:05.526Z,25.46
2019-02-26T21:43:35.595Z,25.62
2019-02-26T21:46:05.577Z,26.07
2019-02-26T21:48:36.723Z,25.65
2019-02-26T21:51:06.896Z,25.00
2019-02-26T21:53:37.462Z,24.90
2019-02-26T21:56:07.157Z,25.30
2019-02-26T21:58:36.628Z,24.60
2019-02-26T22:01:06.101Z,25.02
2019-02-26T22:03:35.528Z,24.82
2019-02-26T22:06:05.719Z,23.75
2019-02-26T22:08:35.231Z,23.60
2019-02-26T22:11:04.816Z,22.70
2019-02-26T22:13:34.364Z,23.07
2019-02-26T22:16:04.483Z,23.02
2019-02-26T22:18:34.365Z,22.58
2019-02-26T22:21:04.522Z,22.15
2019-02-26T22:23:34.835Z,21.82
2019-02-26T22:26:05.426Z,22.52
2019-02-26T22:28:34.843Z,20.65
2019-02-26T22:31:04.994Z,20.88
2019-02-26T22:33:34.557Z,20.77
2019-02-26T22:36:04.986Z,21.70
2019-02-26T22:38:34.468Z,21.17
2019-02-26T22:41:03.932Z,22.05
2019-02-26T22:43:33.356Z,21.48
2019-02-26T22:46:02.813Z,21.55
2019-02-26T22:48:33.262Z,21.97
2019-02-26T22:51:02.734Z,21.15
2019-02-26T22:53:36.389Z,21.07
2019-02-26T22:56:04.516Z,20.65
2019-02-26T22:58:35.853Z,20.23
2019-02-26T23:01:12.619Z,20.95
2019-02-26T23:03:46.049Z,21.00
2019-02-26T23:06:15.274Z,21.43
2019-02-26T23:08:45.379Z,20.48
2019-02-26T23:11:15.530Z,20.02
2019-02-26T23:13:45.653Z,20.15
2019-02-26T23:16:17.991Z,20.50
2019-02-26T23:18:46.722Z,20.62
2019-02-26T23:21:16.995Z,20.83
2019-02-26T23:23:47.111Z,21.20
2019-02-26T23:26:16.644Z,21.17
2019-02-26T23:28:46.191Z,20.85
2019-02-26T23:31:18.054Z,20.33
2019-02-26T23:33:48.426Z,20.57
2019-02-26T23:36:19.861Z,20.92
2019-02-26T23:38:49.342Z,19.98
2019-02-26T23:41:18.994Z,20.20
2019-02-26T23:43:48.519Z,20.35
2019-02-26T23:46:18.091Z,20.90
2019-02-26T23:48:47.608Z,20.52
2019-02-26T23:51:20.129Z,20.62
2019-02-26T23:53:49.222Z,20.70
2019-02-26T23:56:19.135Z,20.62
2019-02-26T23:58:49.252Z,20.60
